sensor_id;sensor_type;location;lat;lon;timestamp;P1;durP1;ratioP1;P2;durP2;ratioP2
6251;SDS011;3159;52.414;9.784;2022-07-29T00:00:10;2.10;;;1.00;;
6251;SDS011;3159;52.414;9.784;2022-07-29T00:02:38;2.93;;;0.80;;
6251;SDS011;3159;52.414;9.784;2022-07-29T00:05:05;1.87;;;0.80;;
6251;SDS011;3159;52.414;9.784;2022-07-29T00:07:33;2.53;;;1.07;;
6251;SDS011;3159;52.414;9.784;2022-07-29T00:10:02;1.77;;;1.10;;
6251;SDS011;3159;52.414;9.784;2022-07-29T00:12:30;4.83;;;1.00;;
6251;SDS011;3159;52.414;9.784;2022-07-29T00:14:57;4.33;;;1.10;;
6251;SDS011;3159;52.414;9.784;2022-07-29T00:17:24;1.03;;;1.00;;
6251;SDS011;3159;52.414;9.784;2022-07-29T00:19:51;2.83;;;1.07;;
6251;SDS011;3159;52.414;9.784;2022-07-29T00:22:20;2.80;;;0.90;;
6251;SDS011;3159;52.414;9.784;2022-07-29T00:24:48;1.67;;;0.90;;
6251;SDS011;3159;52.414;9.784;2022-07-29T00:27:16;3.00;;;0.97;;
6251;SDS011;3159;52.414;9.784;2022-07-29T00:29:43;3.27;;;1.10;;
6251;SDS011;3159;52.414;9.784;2022-07-29T00:32:10;1.93;;;1.07;;
6251;SDS011;3159;52.414;9.784;2022-07-29T00:34:37;2.60;;;1.20;;
6251;SDS011;3159;52.414;9.784;2022-07-29T00:37:21;3.93;;;1.60;;
6251;SDS011;3159;52.414;9.784;2022-07-29T00:39:49;1.00;;;0.90;;
6251;SDS011;3159;52.414;9.784;2022-07-29T00:42:17;4.33;;;1.23;;
6251;SDS011;3159;52.414;9.784;2022-07-29T00:44:43;1.70;;;1.00;;
6251;SDS011;3159;52.414;9.784;2022-07-29T00:47:10;3.47;;;1.13;;
6251;SDS011;3159;52.414;9.784;2022-07-29T00:49:38;2.30;;;1.30;;
6251;SDS011;3159;52.414;9.784;2022-07-29T00:52:06;2.67;;;1.20;;
6251;SDS011;3159;52.414;9.784;2022-07-29T00:54:34;3.10;;;1.23;;
6251;SDS011;3159;52.414;9.784;2022-07-29T00:57:02;4.17;;;1.40;;
6251;SDS011;3159;52.414;9.784;2022-07-29T00:59:30;2.83;;;1.20;;
6251;SDS011;3159;52.414;9.784;2022-07-29T01:01:57;2.63;;;1.00;;
6251;SDS011;3159;52.414;9.784;2022-07-29T01:04:24;2.53;;;1.17;;
6251;SDS011;3159;52.414;9.784;2022-07-29T01:06:52;0.93;;;0.90;;
6251;SDS011;3159;52.414;9.784;2022-07-29T01:09:20;2.17;;;0.90;;
6251;SDS011;3159;52.414;9.784;2022-07-29T01:11:48;1.77;;;0.93;;
6251;SDS011;3159;52.414;9.784;2022-07-29T01:14:17;2.10;;;1.00;;
6251;SDS011;3159;52.414;9.784;2022-07-29T01:16:45;2.77;;;1.10;;
6251;SDS011;3159;52.414;9.784;2022-07-29T01:19:23;6.23;;;1.30;;
6251;SDS011;3159;52.414;9.784;2022-07-29T01:22:09;2.07;;;1.00;;
6251;SDS011;3159;52.414;9.784;2022-07-29T01:27:58;2.73;;;0.90;;
6251;SDS011;3159;52.414;9.784;2022-07-29T01:30:36;3.73;;;1.00;;
6251;SDS011;3159;52.414;9.784;2022-07-29T01:33:06;2.90;;;1.10;;
6251;SDS011;3159;52.414;9.784;2022-07-29T01:35:36;4.07;;;1.20;;
6251;SDS011;3159;52.414;9.784;2022-07-29T01:38:08;3.03;;;1.10;;
6251;SDS011;3159;52.414;9.784;2022-07-29T01:40:40;2.43;;;1.10;;
6251;SDS011;3159;52.414;9.784;2022-07-29T01:43:12;2.67;;;1.10;;
6251;SDS011;3159;52.414;9.784;2022-07-29T01:45:43;3.37;;;1.17;;
6251;SDS011;3159;52.414;9.784;2022-07-29T01:48:15;1.97;;;1.03;;
6251;SDS011;3159;52.414;9.784;2022-07-29T01:50:47;3.13;;;1.13;;
6251;SDS011;3159;52.414;9.784;2022-07-29T01:53:20;2.23;;;1.17;;
6251;SDS011;3159;52.414;9.784;2022-07-29T01:55:51;3.10;;;0.93;;
6251;SDS011;3159;52.414;9.784;2022-07-29T01:58:20;2.60;;;1.00;;
6251;SDS011;3159;52.414;9.784;2022-07-29T02:00:50;3.90;;;1.20;;
6251;SDS011;3159;52.414;9.784;2022-07-29T02:03:18;3.30;;;1.10;;
6251;SDS011;3159;52.414;9.784;2022-07-29T02:05:46;2.20;;;1.10;;
6251;SDS011;3159;52.414;9.784;2022-07-29T02:08:15;3.40;;;1.30;;
6251;SDS011;3159;52.414;9.784;2022-07-29T02:10:45;2.03;;;0.90;;
6251;SDS011;3159;52.414;9.784;2022-07-29T02:13:13;1.90;;;0.90;;
6251;SDS011;3159;52.414;9.784;2022-07-29T02:15:42;1.90;;;0.97;;
6251;SDS011;3159;52.414;9.784;2022-07-29T02:18:13;3.43;;;1.30;;
6251;SDS011;3159;52.414;9.784;2022-07-29T02:20:42;1.53;;;1.00;;
6251;SDS011;3159;52.414;9.784;2022-07-29T02:23:12;2.83;;;1.50;;
6251;SDS011;3159;52.414;9.784;2022-07-29T02:25:43;2.13;;;1.13;;
6251;SDS011;3159;52.414;9.784;2022-07-29T02:28:14;7.60;;;1.57;;
6251;SDS011;3159;52.414;9.784;2022-07-29T02:30:42;1.60;;;1.13;;
6251;SDS011;3159;52.414;9.784;2022-07-29T02:33:13;3.03;;;1.23;;
6251;SDS011;3159;52.414;9.784;2022-07-29T02:35:42;3.20;;;1.20;;
6251;SDS011;3159;52.414;9.784;2022-07-29T02:38:12;2.90;;;1.13;;
6251;SDS011;3159;52.414;9.784;2022-07-29T02:40:58;4.47;;;1.30;;
6251;SDS011;3159;52.414;9.784;2022-07-29T02:43:29;2.07;;;1.20;;
6251;SDS011;3159;52.414;9.784;2022-07-29T02:45:58;3.97;;;1.10;;
6251;SDS011;3159;52.414;9.784;2022-07-29T02:48:32;3.67;;;1.63;;
6251;SDS011;3159;52.414;9.784;2022-07-29T02:51:05;1.97;;;1.00;;
6251;SDS011;3159;52.414;9.784;2022-07-29T02:53:35;4.83;;;1.13;;
6251;SDS011;3159;52.414;9.784;2022-07-29T02:56:06;3.53;;;1.17;;
6251;SDS011;3159;52.414;9.784;2022-07-29T02:58:38;6.10;;;1.37;;
6251;SDS011;3159;52.414;9.784;2022-07-29T03:01:08;1.67;;;1.13;;
6251;SDS011;3159;52.414;9.784;2022-07-29T03:03:40;1.90;;;1.43;;
6251;SDS011;3159;52.414;9.784;2022-07-29T03:06:11;1.60;;;1.20;;
6251;SDS011;3159;52.414;9.784;2022-07-29T03:08:40;4.67;;;1.30;;
6251;SDS011;3159;52.414;9.784;2022-07-29T03:11:08;3.00;;;1.20;;
6251;SDS011;3159;52.414;9.784;2022-07-29T03:13:36;3.50;;;1.20;;
6251;SDS011;3159;52.414;9.784;2022-07-29T03:16:04;5.40;;;1.40;;
6251;SDS011;3159;52.414;9.784;2022-07-29T03:18:33;3.10;;;1.37;;
6251;SDS011;3159;52.414;9.784;2022-07-29T03:21:02;3.10;;;1.33;;
6251;SDS011;3159;52.414;9.784;2022-07-29T03:23:29;2.30;;;1.37;;
6251;SDS011;3159;52.414;9.784;2022-07-29T03:25:56;2.70;;;1.13;;
6251;SDS011;3159;52.414;9.784;2022-07-29T03:28:23;2.73;;;1.20;;
6251;SDS011;3159;52.414;9.784;2022-07-29T03:30:52;3.67;;;1.27;;
6251;SDS011;3159;52.414;9.784;2022-07-29T03:33:19;4.90;;;1.50;;
6251;SDS011;3159;52.414;9.784;2022-07-29T03:35:47;3.27;;;1.10;;
6251;SDS011;3159;52.414;9.784;2022-07-29T03:38:15;4.53;;;1.40;;
6251;SDS011;3159;52.414;9.784;2022-07-29T03:40:42;2.97;;;1.30;;
6251;SDS011;3159;52.414;9.784;2022-07-29T03:43:14;1.40;;;1.30;;
6251;SDS011;3159;52.414;9.784;2022-07-29T03:45:44;2.07;;;1.13;;
6251;SDS011;3159;52.414;9.784;2022-07-29T03:48:15;4.13;;;1.40;;
6251;SDS011;3159;52.414;9.784;2022-07-29T03:50:45;3.77;;;1.70;;
6251;SDS011;3159;52.414;9.784;2022-07-29T03:53:12;2.63;;;1.20;;
6251;SDS011;3159;52.414;9.784;2022-07-29T03:55:42;2.50;;;1.50;;
6251;SDS011;3159;52.414;9.784;2022-07-29T03:58:11;2.37;;;1.50;;
6251;SDS011;3159;52.414;9.784;2022-07-29T04:00:39;3.97;;;1.80;;
6251;SDS011;3159;52.414;9.784;2022-07-29T04:03:08;1.53;;;1.30;;
6251;SDS011;3159;52.414;9.784;2022-07-29T04:05:35;2.30;;;1.23;;
6251;SDS011;3159;52.414;9.784;2022-07-29T04:08:02;2.80;;;1.60;;
6251;SDS011;3159;52.414;9.784;2022-07-29T04:10:29;3.70;;;1.47;;
6251;SDS011;3159;52.414;9.784;2022-07-29T04:12:57;3.23;;;1.70;;
6251;SDS011;3159;52.414;9.784;2022-07-29T04:15:25;2.53;;;1.60;;
6251;SDS011;3159;52.414;9.784;2022-07-29T04:17:53;3.00;;;1.50;;
6251;SDS011;3159;52.414;9.784;2022-07-29T04:20:20;4.27;;;1.30;;
6251;SDS011;3159;52.414;9.784;2022-07-29T04:22:47;3.87;;;1.53;;
6251;SDS011;3159;52.414;9.784;2022-07-29T04:25:14;2.07;;;1.50;;
6251;SDS011;3159;52.414;9.784;2022-07-29T04:27:41;4.93;;;1.50;;
6251;SDS011;3159;52.414;9.784;2022-07-29T04:30:23;3.93;;;1.63;;
6251;SDS011;3159;52.414;9.784;2022-07-29T04:32:50;3.43;;;1.53;;
6251;SDS011;3159;52.414;9.784;2022-07-29T04:35:16;3.33;;;1.80;;
6251;SDS011;3159;52.414;9.784;2022-07-29T04:37:43;2.37;;;1.50;;
6251;SDS011;3159;52.414;9.784;2022-07-29T04:40:10;3.30;;;1.57;;
6251;SDS011;3159;52.414;9.784;2022-07-29T04:42:38;4.43;;;1.40;;
6251;SDS011;3159;52.414;9.784;2022-07-29T04:45:05;3.33;;;1.60;;
6251;SDS011;3159;52.414;9.784;2022-07-29T04:47:34;4.23;;;1.60;;
6251;SDS011;3159;52.414;9.784;2022-07-29T04:50:01;3.30;;;1.53;;
6251;SDS011;3159;52.414;9.784;2022-07-29T04:52:28;3.03;;;1.50;;
6251;SDS011;3159;52.414;9.784;2022-07-29T04:54:55;2.17;;;1.33;;
6251;SDS011;3159;52.414;9.784;2022-07-29T04:57:21;5.60;;;1.80;;
6251;SDS011;3159;52.414;9.784;2022-07-29T04:59:48;4.47;;;1.63;;
6251;SDS011;3159;52.414;9.784;2022-07-29T05:02:15;4.43;;;1.80;;
6251;SDS011;3159;52.414;9.784;2022-07-29T05:04:44;3.07;;;1.63;;
6251;SDS011;3159;52.414;9.784;2022-07-29T05:07:10;3.80;;;1.73;;
6251;SDS011;3159;52.414;9.784;2022-07-29T05:09:37;2.72;;;1.70;;
6251;SDS011;3159;52.414;9.784;2022-07-29T05:12:04;3.30;;;1.67;;
6251;SDS011;3159;52.414;9.784;2022-07-29T05:14:32;1.97;;;1.63;;
6251;SDS011;3159;52.414;9.784;2022-07-29T05:16:59;4.97;;;2.13;;
6251;SDS011;3159;52.414;9.784;2022-07-29T05:19:26;2.77;;;1.60;;
6251;SDS011;3159;52.414;9.784;2022-07-29T05:21:54;3.87;;;1.50;;
6251;SDS011;3159;52.414;9.784;2022-07-29T05:24:21;6.47;;;1.60;;
6251;SDS011;3159;52.414;9.784;2022-07-29T05:26:48;3.17;;;1.47;;
6251;SDS011;3159;52.414;9.784;2022-07-29T05:29:15;2.73;;;1.47;;
6251;SDS011;3159;52.414;9.784;2022-07-29T05:31:42;1.97;;;1.60;;
6251;SDS011;3159;52.414;9.784;2022-07-29T05:34:08;2.80;;;1.60;;
6251;SDS011;3159;52.414;9.784;2022-07-29T05:36:36;3.47;;;1.70;;
6251;SDS011;3159;52.414;9.784;2022-07-29T05:39:04;4.13;;;1.80;;
6251;SDS011;3159;52.414;9.784;2022-07-29T05:41:31;3.57;;;1.43;;
6251;SDS011;3159;52.414;9.784;2022-07-29T05:43:58;5.00;;;1.80;;
6251;SDS011;3159;52.414;9.784;2022-07-29T05:46:25;3.30;;;1.80;;
6251;SDS011;3159;52.414;9.784;2022-07-29T05:48:52;2.67;;;1.70;;
6251;SDS011;3159;52.414;9.784;2022-07-29T05:51:19;2.23;;;1.57;;
6251;SDS011;3159;52.414;9.784;2022-07-29T05:53:46;2.67;;;1.50;;
6251;SDS011;3159;52.414;9.784;2022-07-29T05:56:14;3.57;;;1.93;;
6251;SDS011;3159;52.414;9.784;2022-07-29T05:58:41;6.50;;;1.90;;
6251;SDS011;3159;52.414;9.784;2022-07-29T06:01:08;3.57;;;1.67;;
6251;SDS011;3159;52.414;9.784;2022-07-29T06:03:35;2.40;;;1.60;;
6251;SDS011;3159;52.414;9.784;2022-07-29T06:06:02;3.03;;;1.80;;
6251;SDS011;3159;52.414;9.784;2022-07-29T06:08:30;4.13;;;1.80;;
6251;SDS011;3159;52.414;9.784;2022-07-29T06:10:58;3.47;;;1.77;;
6251;SDS011;3159;52.414;9.784;2022-07-29T06:13:26;4.27;;;1.90;;
6251;SDS011;3159;52.414;9.784;2022-07-29T06:15:53;3.47;;;1.73;;
6251;SDS011;3159;52.414;9.784;2022-07-29T06:18:20;3.33;;;2.00;;
6251;SDS011;3159;52.414;9.784;2022-07-29T06:20:48;3.00;;;1.60;;
6251;SDS011;3159;52.414;9.784;2022-07-29T06:23:19;4.30;;;1.83;;
6251;SDS011;3159;52.414;9.784;2022-07-29T06:25:46;5.20;;;2.00;;
6251;SDS011;3159;52.414;9.784;2022-07-29T06:28:13;2.93;;;1.90;;
6251;SDS011;3159;52.414;9.784;2022-07-29T06:30:42;4.40;;;1.67;;
6251;SDS011;3159;52.414;9.784;2022-07-29T06:33:08;5.97;;;2.00;;
6251;SDS011;3159;52.414;9.784;2022-07-29T06:35:35;5.20;;;1.73;;
6251;SDS011;3159;52.414;9.784;2022-07-29T06:38:04;3.60;;;2.00;;
6251;SDS011;3159;52.414;9.784;2022-07-29T06:40:30;3.80;;;1.93;;
6251;SDS011;3159;52.414;9.784;2022-07-29T06:43:15;3.50;;;1.77;;
6251;SDS011;3159;52.414;9.784;2022-07-29T06:45:43;3.43;;;2.03;;
6251;SDS011;3159;52.414;9.784;2022-07-29T06:48:10;8.47;;;2.30;;
6251;SDS011;3159;52.414;9.784;2022-07-29T06:50:37;4.20;;;2.03;;
6251;SDS011;3159;52.414;9.784;2022-07-29T06:53:04;3.93;;;2.07;;
6251;SDS011;3159;52.414;9.784;2022-07-29T06:55:31;3.50;;;2.17;;
6251;SDS011;3159;52.414;9.784;2022-07-29T06:57:58;3.87;;;2.27;;
6251;SDS011;3159;52.414;9.784;2022-07-29T07:00:25;5.03;;;2.10;;
6251;SDS011;3159;52.414;9.784;2022-07-29T07:02:53;4.93;;;2.40;;
6251;SDS011;3159;52.414;9.784;2022-07-29T07:05:20;5.40;;;2.10;;
6251;SDS011;3159;52.414;9.784;2022-07-29T07:07:47;3.67;;;1.90;;
6251;SDS011;3159;52.414;9.784;2022-07-29T07:10:14;4.00;;;2.00;;
6251;SDS011;3159;52.414;9.784;2022-07-29T07:12:41;4.50;;;1.93;;
6251;SDS011;3159;52.414;9.784;2022-07-29T07:15:08;6.63;;;2.40;;
6251;SDS011;3159;52.414;9.784;2022-07-29T07:17:35;3.47;;;2.50;;
6251;SDS011;3159;52.414;9.784;2022-07-29T07:20:05;5.07;;;2.00;;
6251;SDS011;3159;52.414;9.784;2022-07-29T07:22:33;4.57;;;2.03;;
6251;SDS011;3159;52.414;9.784;2022-07-29T07:25:00;3.17;;;1.97;;
6251;SDS011;3159;52.414;9.784;2022-07-29T07:27:26;2.27;;;1.80;;
6251;SDS011;3159;52.414;9.784;2022-07-29T07:29:54;4.33;;;2.10;;
6251;SDS011;3159;52.414;9.784;2022-07-29T07:32:21;7.13;;;2.00;;
6251;SDS011;3159;52.414;9.784;2022-07-29T07:34:48;3.77;;;2.07;;
6251;SDS011;3159;52.414;9.784;2022-07-29T07:37:16;2.60;;;1.83;;
6251;SDS011;3159;52.414;9.784;2022-07-29T07:39:45;5.90;;;1.97;;
6251;SDS011;3159;52.414;9.784;2022-07-29T07:42:12;3.27;;;2.10;;
6251;SDS011;3159;52.414;9.784;2022-07-29T07:44:39;3.80;;;1.50;;
6251;SDS011;3159;52.414;9.784;2022-07-29T07:47:06;2.77;;;1.80;;
6251;SDS011;3159;52.414;9.784;2022-07-29T07:49:33;5.30;;;2.13;;
6251;SDS011;3159;52.414;9.784;2022-07-29T07:52:00;5.67;;;2.20;;
6251;SDS011;3159;52.414;9.784;2022-07-29T07:54:28;3.30;;;1.60;;
6251;SDS011;3159;52.414;9.784;2022-07-29T07:56:55;4.20;;;1.90;;
6251;SDS011;3159;52.414;9.784;2022-07-29T07:59:22;6.07;;;2.53;;
6251;SDS011;3159;52.414;9.784;2022-07-29T08:01:49;10.37;;;2.03;;
6251;SDS011;3159;52.414;9.784;2022-07-29T08:04:16;9.10;;;2.43;;
6251;SDS011;3159;52.414;9.784;2022-07-29T08:06:42;2.90;;;1.70;;
6251;SDS011;3159;52.414;9.784;2022-07-29T08:09:09;3.50;;;1.70;;
6251;SDS011;3159;52.414;9.784;2022-07-29T08:11:38;3.47;;;1.90;;
6251;SDS011;3159;52.414;9.784;2022-07-29T08:14:04;4.97;;;2.00;;
6251;SDS011;3159;52.414;9.784;2022-07-29T08:16:31;6.93;;;2.30;;
6251;SDS011;3159;52.414;9.784;2022-07-29T08:18:58;3.37;;;2.00;;
6251;SDS011;3159;52.414;9.784;2022-07-29T08:21:25;3.67;;;1.97;;
6251;SDS011;3159;52.414;9.784;2022-07-29T08:23:52;4.97;;;2.40;;
6251;SDS011;3159;52.414;9.784;2022-07-29T08:26:40;6.33;;;2.30;;
6251;SDS011;3159;52.414;9.784;2022-07-29T08:29:08;7.03;;;2.20;;
6251;SDS011;3159;52.414;9.784;2022-07-29T08:31:35;4.13;;;2.03;;
6251;SDS011;3159;52.414;9.784;2022-07-29T08:34:02;4.20;;;2.20;;
6251;SDS011;3159;52.414;9.784;2022-07-29T08:36:29;3.70;;;2.00;;
6251;SDS011;3159;52.414;9.784;2022-07-29T08:38:56;3.10;;;1.67;;
6251;SDS011;3159;52.414;9.784;2022-07-29T08:41:24;5.10;;;1.83;;
6251;SDS011;3159;52.414;9.784;2022-07-29T08:43:53;6.00;;;2.10;;
6251;SDS011;3159;52.414;9.784;2022-07-29T08:46:20;5.10;;;2.60;;
6251;SDS011;3159;52.414;9.784;2022-07-29T08:48:47;6.60;;;2.07;;
6251;SDS011;3159;52.414;9.784;2022-07-29T08:51:15;3.10;;;2.20;;
6251;SDS011;3159;52.414;9.784;2022-07-29T08:53:44;5.03;;;2.33;;
6251;SDS011;3159;52.414;9.784;2022-07-29T08:56:13;3.87;;;2.00;;
6251;SDS011;3159;52.414;9.784;2022-07-29T08:58:41;5.50;;;2.00;;
6251;SDS011;3159;52.414;9.784;2022-07-29T09:01:10;4.40;;;2.00;;
6251;SDS011;3159;52.414;9.784;2022-07-29T09:03:40;3.47;;;2.10;;
6251;SDS011;3159;52.414;9.784;2022-07-29T09:06:07;4.97;;;2.23;;
6251;SDS011;3159;52.414;9.784;2022-07-29T09:08:34;6.27;;;2.17;;
6251;SDS011;3159;52.414;9.784;2022-07-29T09:11:01;4.43;;;2.13;;
6251;SDS011;3159;52.414;9.784;2022-07-29T09:13:28;4.73;;;2.20;;
6251;SDS011;3159;52.414;9.784;2022-07-29T09:15:55;6.13;;;2.73;;
6251;SDS011;3159;52.414;9.784;2022-07-29T09:18:37;5.33;;;2.60;;
6251;SDS011;3159;52.414;9.784;2022-07-29T09:21:05;3.90;;;2.20;;
6251;SDS011;3159;52.414;9.784;2022-07-29T09:24:00;4.57;;;2.33;;
6251;SDS011;3159;52.414;9.784;2022-07-29T09:26:28;3.83;;;2.43;;
6251;SDS011;3159;52.414;9.784;2022-07-29T09:28:56;4.33;;;2.40;;
6251;SDS011;3159;52.414;9.784;2022-07-29T09:31:34;6.07;;;2.53;;
6251;SDS011;3159;52.414;9.784;2022-07-29T09:34:02;4.73;;;2.30;;
6251;SDS011;3159;52.414;9.784;2022-07-29T09:36:29;3.90;;;2.37;;
6251;SDS011;3159;52.414;9.784;2022-07-29T09:38:56;4.27;;;1.87;;
6251;SDS011;3159;52.414;9.784;2022-07-29T09:41:24;5.70;;;2.60;;
6251;SDS011;3159;52.414;9.784;2022-07-29T09:43:55;3.30;;;1.87;;
6251;SDS011;3159;52.414;9.784;2022-07-29T09:46:23;5.23;;;2.13;;
6251;SDS011;3159;52.414;9.784;2022-07-29T09:49:07;7.17;;;2.30;;
6251;SDS011;3159;52.414;9.784;2022-07-29T09:51:35;5.20;;;2.10;;
6251;SDS011;3159;52.414;9.784;2022-07-29T09:54:02;5.20;;;2.00;;
6251;SDS011;3159;52.414;9.784;2022-07-29T09:56:48;3.73;;;2.17;;
6251;SDS011;3159;52.414;9.784;2022-07-29T09:59:15;5.33;;;2.10;;
6251;SDS011;3159;52.414;9.784;2022-07-29T10:01:42;3.83;;;1.93;;
6251;SDS011;3159;52.414;9.784;2022-07-29T10:04:10;4.43;;;2.43;;
6251;SDS011;3159;52.414;9.784;2022-07-29T10:06:43;3.80;;;2.30;;
6251;SDS011;3159;52.414;9.784;2022-07-29T10:09:23;4.13;;;2.30;;
6251;SDS011;3159;52.414;9.784;2022-07-29T10:14:34;3.93;;;2.70;;
6251;SDS011;3159;52.414;9.784;2022-07-29T10:17:02;4.30;;;2.23;;
6251;SDS011;3159;52.414;9.784;2022-07-29T10:19:32;5.80;;;2.40;;
6251;SDS011;3159;52.414;9.784;2022-07-29T10:22:00;7.60;;;2.40;;
6251;SDS011;3159;52.414;9.784;2022-07-29T10:24:30;12.37;;;2.97;;
6251;SDS011;3159;52.414;9.784;2022-07-29T10:26:57;3.50;;;1.90;;
6251;SDS011;3159;52.414;9.784;2022-07-29T10:29:26;4.43;;;2.07;;
6251;SDS011;3159;52.414;9.784;2022-07-29T10:32:08;3.53;;;2.30;;
6251;SDS011;3159;52.414;9.784;2022-07-29T10:34:49;4.67;;;2.03;;
6251;SDS011;3159;52.414;9.784;2022-07-29T10:37:46;3.70;;;1.90;;
6251;SDS011;3159;52.414;9.784;2022-07-29T10:40:36;5.80;;;2.30;;
6251;SDS011;3159;52.414;9.784;2022-07-29T10:43:28;5.87;;;2.20;;
6251;SDS011;3159;52.414;9.784;2022-07-29T10:46:01;5.77;;;2.30;;
6251;SDS011;3159;52.414;9.784;2022-07-29T10:48:29;2.50;;;2.30;;
6251;SDS011;3159;52.414;9.784;2022-07-29T10:50:57;2.63;;;1.87;;
6251;SDS011;3159;52.414;9.784;2022-07-29T10:56:23;2.80;;;2.10;;
6251;SDS011;3159;52.414;9.784;2022-07-29T11:01:51;2.63;;;2.07;;
6251;SDS011;3159;52.414;9.784;2022-07-29T11:07:25;4.87;;;2.00;;
6251;SDS011;3159;52.414;9.784;2022-07-29T11:12:51;6.30;;;2.53;;
6251;SDS011;3159;52.414;9.784;2022-07-29T11:15:19;4.13;;;2.10;;
6251;SDS011;3159;52.414;9.784;2022-07-29T11:18:06;3.93;;;2.40;;
6251;SDS011;3159;52.414;9.784;2022-07-29T11:20:35;2.67;;;1.93;;
6251;SDS011;3159;52.414;9.784;2022-07-29T11:23:21;5.80;;;2.17;;
6251;SDS011;3159;52.414;9.784;2022-07-29T11:26:13;4.37;;;1.63;;
6251;SDS011;3159;52.414;9.784;2022-07-29T11:28:52;5.77;;;1.87;;
6251;SDS011;3159;52.414;9.784;2022-07-29T11:31:33;2.93;;;1.77;;
6251;SDS011;3159;52.414;9.784;2022-07-29T11:34:15;3.63;;;1.80;;
6251;SDS011;3159;52.414;9.784;2022-07-29T11:42:41;3.83;;;2.07;;
6251;SDS011;3159;52.414;9.784;2022-07-29T11:45:10;3.30;;;1.97;;
6251;SDS011;3159;52.414;9.784;2022-07-29T11:47:40;3.67;;;1.90;;
6251;SDS011;3159;52.414;9.784;2022-07-29T11:50:12;3.20;;;1.90;;
6251;SDS011;3159;52.414;9.784;2022-07-29T11:52:41;3.50;;;1.80;;
6251;SDS011;3159;52.414;9.784;2022-07-29T11:55:11;4.20;;;1.90;;
6251;SDS011;3159;52.414;9.784;2022-07-29T11:57:46;4.33;;;1.90;;
6251;SDS011;3159;52.414;9.784;2022-07-29T12:00:24;5.13;;;2.10;;
6251;SDS011;3159;52.414;9.784;2022-07-29T12:02:53;4.33;;;1.80;;
6251;SDS011;3159;52.414;9.784;2022-07-29T12:05:21;2.20;;;1.60;;
6251;SDS011;3159;52.414;9.784;2022-07-29T12:08:04;2.47;;;2.00;;
6251;SDS011;3159;52.414;9.784;2022-07-29T12:10:33;2.40;;;1.53;;
6251;SDS011;3159;52.414;9.784;2022-07-29T12:13:01;2.87;;;1.93;;
6251;SDS011;3159;52.414;9.784;2022-07-29T12:15:28;2.17;;;1.70;;
6251;SDS011;3159;52.414;9.784;2022-07-29T12:17:55;5.83;;;2.00;;
6251;SDS011;3159;52.414;9.784;2022-07-29T12:20:23;3.27;;;2.03;;
6251;SDS011;3159;52.414;9.784;2022-07-29T12:22:50;2.77;;;2.17;;
6251;SDS011;3159;52.414;9.784;2022-07-29T12:25:19;2.93;;;1.90;;
6251;SDS011;3159;52.414;9.784;2022-07-29T12:27:48;5.33;;;1.93;;
6251;SDS011;3159;52.414;9.784;2022-07-29T12:30:33;3.63;;;1.73;;
6251;SDS011;3159;52.414;9.784;2022-07-29T12:33:09;6.57;;;1.77;;
6251;SDS011;3159;52.414;9.784;2022-07-29T12:35:41;3.07;;;1.93;;
6251;SDS011;3159;52.414;9.784;2022-07-29T12:38:09;3.07;;;1.87;;
6251;SDS011;3159;52.414;9.784;2022-07-29T12:40:37;5.27;;;2.00;;
6251;SDS011;3159;52.414;9.784;2022-07-29T12:43:06;6.93;;;2.20;;
6251;SDS011;3159;52.414;9.784;2022-07-29T12:45:37;3.23;;;2.27;;
6251;SDS011;3159;52.414;9.784;2022-07-29T12:48:06;3.97;;;1.60;;
6251;SDS011;3159;52.414;9.784;2022-07-29T12:50:34;6.67;;;2.17;;
6251;SDS011;3159;52.414;9.784;2022-07-29T12:53:08;3.80;;;1.90;;
6251;SDS011;3159;52.414;9.784;2022-07-29T12:55:40;2.30;;;1.80;;
6251;SDS011;3159;52.414;9.784;2022-07-29T12:58:09;5.37;;;2.00;;
6251;SDS011;3159;52.414;9.784;2022-07-29T13:00:36;3.10;;;1.97;;
6251;SDS011;3159;52.414;9.784;2022-07-29T13:03:03;2.10;;;1.60;;
6251;SDS011;3159;52.414;9.784;2022-07-29T13:05:40;3.73;;;1.70;;
6251;SDS011;3159;52.414;9.784;2022-07-29T13:08:12;3.53;;;1.80;;
6251;SDS011;3159;52.414;9.784;2022-07-29T13:10:40;3.83;;;2.00;;
6251;SDS011;3159;52.414;9.784;2022-07-29T13:13:10;3.20;;;1.80;;
6251;SDS011;3159;52.414;9.784;2022-07-29T13:15:38;4.23;;;1.87;;
6251;SDS011;3159;52.414;9.784;2022-07-29T13:20:55;8.00;;;2.17;;
6251;SDS011;3159;52.414;9.784;2022-07-29T13:23:22;5.73;;;2.00;;
6251;SDS011;3159;52.414;9.784;2022-07-29T13:25:49;3.53;;;2.17;;
6251;SDS011;3159;52.414;9.784;2022-07-29T13:28:17;6.03;;;2.47;;
6251;SDS011;3159;52.414;9.784;2022-07-29T13:30:44;3.63;;;2.37;;
6251;SDS011;3159;52.414;9.784;2022-07-29T13:33:11;4.77;;;2.10;;
6251;SDS011;3159;52.414;9.784;2022-07-29T13:35:40;5.83;;;2.50;;
6251;SDS011;3159;52.414;9.784;2022-07-29T13:38:06;6.30;;;2.40;;
6251;SDS011;3159;52.414;9.784;2022-07-29T13:40:33;5.23;;;2.23;;
6251;SDS011;3159;52.414;9.784;2022-07-29T13:43:00;4.33;;;2.30;;
6251;SDS011;3159;52.414;9.784;2022-07-29T13:45:29;3.70;;;2.23;;
6251;SDS011;3159;52.414;9.784;2022-07-29T13:47:55;3.17;;;2.20;;
6251;SDS011;3159;52.414;9.784;2022-07-29T13:50:22;5.40;;;2.40;;
6251;SDS011;3159;52.414;9.784;2022-07-29T13:52:49;4.13;;;2.67;;
6251;SDS011;3159;52.414;9.784;2022-07-29T13:55:19;5.40;;;2.40;;
6251;SDS011;3159;52.414;9.784;2022-07-29T13:57:46;4.07;;;2.40;;
6251;SDS011;3159;52.414;9.784;2022-07-29T14:00:13;5.40;;;2.37;;
6251;SDS011;3159;52.414;9.784;2022-07-29T14:02:42;5.63;;;2.40;;
6251;SDS011;3159;52.414;9.784;2022-07-29T14:05:09;5.57;;;2.17;;
6251;SDS011;3159;52.414;9.784;2022-07-29T14:07:37;4.10;;;2.67;;
6251;SDS011;3159;52.414;9.784;2022-07-29T14:10:05;23.17;;;2.80;;
6251;SDS011;3159;52.414;9.784;2022-07-29T14:12:32;5.63;;;2.37;;
6251;SDS011;3159;52.414;9.784;2022-07-29T14:14:59;7.03;;;2.57;;
6251;SDS011;3159;52.414;9.784;2022-07-29T14:17:26;5.20;;;2.20;;
6251;SDS011;3159;52.414;9.784;2022-07-29T14:19:54;5.07;;;2.40;;
6251;SDS011;3159;52.414;9.784;2022-07-29T14:22:21;5.23;;;2.23;;
6251;SDS011;3159;52.414;9.784;2022-07-29T14:24:50;3.93;;;2.30;;
6251;SDS011;3159;52.414;9.784;2022-07-29T14:27:17;5.80;;;2.40;;
6251;SDS011;3159;52.414;9.784;2022-07-29T14:29:44;9.03;;;2.50;;
6251;SDS011;3159;52.414;9.784;2022-07-29T14:32:11;2.40;;;2.20;;
6251;SDS011;3159;52.414;9.784;2022-07-29T14:34:39;4.87;;;2.43;;
6251;SDS011;3159;52.414;9.784;2022-07-29T14:37:08;5.57;;;2.20;;
6251;SDS011;3159;52.414;9.784;2022-07-29T14:39:35;4.70;;;1.97;;
6251;SDS011;3159;52.414;9.784;2022-07-29T14:42:02;5.37;;;2.20;;
6251;SDS011;3159;52.414;9.784;2022-07-29T14:44:29;4.27;;;2.37;;
6251;SDS011;3159;52.414;9.784;2022-07-29T14:46:57;2.43;;;2.00;;
6251;SDS011;3159;52.414;9.784;2022-07-29T14:49:24;5.67;;;2.00;;
6251;SDS011;3159;52.414;9.784;2022-07-29T14:51:51;2.40;;;2.20;;
6251;SDS011;3159;52.414;9.784;2022-07-29T14:54:19;3.43;;;2.17;;
6251;SDS011;3159;52.414;9.784;2022-07-29T14:56:46;3.17;;;2.03;;
6251;SDS011;3159;52.414;9.784;2022-07-29T14:59:14;4.43;;;2.30;;
6251;SDS011;3159;52.414;9.784;2022-07-29T15:01:41;7.10;;;2.27;;
6251;SDS011;3159;52.414;9.784;2022-07-29T15:04:08;6.57;;;2.40;;
6251;SDS011;3159;52.414;9.784;2022-07-29T15:06:34;4.83;;;2.30;;
6251;SDS011;3159;52.414;9.784;2022-07-29T15:09:02;5.80;;;2.10;;
6251;SDS011;3159;52.414;9.784;2022-07-29T15:11:31;6.37;;;2.07;;
6251;SDS011;3159;52.414;9.784;2022-07-29T15:13:57;7.40;;;2.53;;
6251;SDS011;3159;52.414;9.784;2022-07-29T15:16:24;29.67;;;3.83;;
6251;SDS011;3159;52.414;9.784;2022-07-29T15:18:51;3.00;;;1.93;;
6251;SDS011;3159;52.414;9.784;2022-07-29T15:21:18;4.10;;;2.20;;
6251;SDS011;3159;52.414;9.784;2022-07-29T15:23:45;7.40;;;2.00;;
6251;SDS011;3159;52.414;9.784;2022-07-29T15:26:12;5.70;;;1.93;;
6251;SDS011;3159;52.414;9.784;2022-07-29T15:28:40;5.40;;;2.10;;
6251;SDS011;3159;52.414;9.784;2022-07-29T15:31:07;3.63;;;2.13;;
6251;SDS011;3159;52.414;9.784;2022-07-29T15:33:34;3.73;;;2.20;;
6251;SDS011;3159;52.414;9.784;2022-07-29T15:36:01;2.70;;;1.77;;
6251;SDS011;3159;52.414;9.784;2022-07-29T15:38:29;5.97;;;1.90;;
6251;SDS011;3159;52.414;9.784;2022-07-29T15:40:56;6.30;;;2.20;;
6251;SDS011;3159;52.414;9.784;2022-07-29T15:43:23;5.07;;;2.40;;
6251;SDS011;3159;52.414;9.784;2022-07-29T15:45:51;5.07;;;2.60;;
6251;SDS011;3159;52.414;9.784;2022-07-29T15:48:36;3.20;;;2.07;;
6251;SDS011;3159;52.414;9.784;2022-07-29T15:51:04;5.43;;;2.50;;
6251;SDS011;3159;52.414;9.784;2022-07-29T15:53:31;5.63;;;2.20;;